sensor_id;sensor_type;location;lat;lon;timestamp;P1;durP1;ratioP1;P2;durP2;ratioP2
9597;SDS011;4837;50.890;4.724;2023-04-24T00:00:15;19.17;;;11.30;;
9597;SDS011;4837;50.890;4.724;2023-04-24T00:02:42;15.90;;;10.85;;
9597;SDS011;4837;50.890;4.724;2023-04-24T00:05:12;15.87;;;10.80;;
9597;SDS011;4837;50.890;4.724;2023-04-24T00:07:39;14.50;;;11.52;;
9597;SDS011;4837;50.890;4.724;2023-04-24T00:10:05;18.23;;;11.80;;
9597;SDS011;4837;50.890;4.724;2023-04-24T00:12:31;14.23;;;11.65;;
9597;SDS011;4837;50.890;4.724;2023-04-24T00:14:58;19.00;;;11.95;;
9597;SDS011;4837;50.890;4.724;2023-04-24T00:17:24;21.40;;;12.05;;
9597;SDS011;4837;50.890;4.724;2023-04-24T00:19:50;15.50;;;12.15;;
9597;SDS011;4837;50.890;4.724;2023-04-24T00:22:16;14.82;;;11.70;;
9597;SDS011;4837;50.890;4.724;2023-04-24T00:24:43;18.00;;;11.98;;
9597;SDS011;4837;50.890;4.724;2023-04-24T00:27:09;17.65;;;12.25;;
9597;SDS011;4837;50.890;4.724;2023-04-24T00:29:35;17.70;;;11.63;;
9597;SDS011;4837;50.890;4.724;2023-04-24T00:32:01;14.45;;;10.85;;
9597;SDS011;4837;50.890;4.724;2023-04-24T00:34:27;21.88;;;11.80;;
9597;SDS011;4837;50.890;4.724;2023-04-24T00:36:53;17.20;;;11.52;;
9597;SDS011;4837;50.890;4.724;2023-04-24T00:39:20;17.63;;;11.27;;
9597;SDS011;4837;50.890;4.724;2023-04-24T00:41:46;15.40;;;12.38;;
9597;SDS011;4837;50.890;4.724;2023-04-24T00:44:13;16.27;;;10.93;;
9597;SDS011;4837;50.890;4.724;2023-04-24T00:46:40;16.67;;;11.57;;
9597;SDS011;4837;50.890;4.724;2023-04-24T00:49:06;17.80;;;11.95;;
9597;SDS011;4837;50.890;4.724;2023-04-24T00:51:32;19.33;;;12.63;;
9597;SDS011;4837;50.890;4.724;2023-04-24T00:53:59;19.33;;;12.90;;
9597;SDS011;4837;50.890;4.724;2023-04-24T00:56:26;18.05;;;12.20;;
9597;SDS011;4837;50.890;4.724;2023-04-24T00:58:52;21.73;;;13.68;;
9597;SDS011;4837;50.890;4.724;2023-04-24T01:01:21;22.35;;;12.90;;
9597;SDS011;4837;50.890;4.724;2023-04-24T01:03:51;17.47;;;11.83;;
9597;SDS011;4837;50.890;4.724;2023-04-24T01:06:18;20.10;;;13.05;;
9597;SDS011;4837;50.890;4.724;2023-04-24T01:08:44;17.02;;;12.93;;
9597;SDS011;4837;50.890;4.724;2023-04-24T01:11:11;19.10;;;12.68;;
9597;SDS011;4837;50.890;4.724;2023-04-24T01:13:37;16.58;;;12.65;;
9597;SDS011;4837;50.890;4.724;2023-04-24T01:16:03;19.05;;;13.02;;
9597;SDS011;4837;50.890;4.724;2023-04-24T01:18:29;18.30;;;13.07;;
9597;SDS011;4837;50.890;4.724;2023-04-24T01:20:57;16.50;;;12.30;;
9597;SDS011;4837;50.890;4.724;2023-04-24T01:23:23;18.58;;;12.18;;
9597;SDS011;4837;50.890;4.724;2023-04-24T01:25:49;20.50;;;12.30;;
9597;SDS011;4837;50.890;4.724;2023-04-24T01:28:16;19.40;;;12.65;;
9597;SDS011;4837;50.890;4.724;2023-04-24T01:30:43;16.13;;;12.55;;
9597;SDS011;4837;50.890;4.724;2023-04-24T01:33:09;16.23;;;11.85;;
9597;SDS011;4837;50.890;4.724;2023-04-24T01:35:35;19.30;;;11.80;;
9597;SDS011;4837;50.890;4.724;2023-04-24T01:38:02;14.73;;;10.82;;
9597;SDS011;4837;50.890;4.724;2023-04-24T01:40:28;14.95;;;11.38;;
9597;SDS011;4837;50.890;4.724;2023-04-24T01:42:55;14.65;;;11.18;;
9597;SDS011;4837;50.890;4.724;2023-04-24T01:45:21;14.27;;;10.48;;
9597;SDS011;4837;50.890;4.724;2023-04-24T01:47:47;16.15;;;9.95;;
9597;SDS011;4837;50.890;4.724;2023-04-24T01:50:14;16.15;;;11.35;;
9597;SDS011;4837;50.890;4.724;2023-04-24T01:52:40;15.07;;;10.85;;
9597;SDS011;4837;50.890;4.724;2023-04-24T01:55:06;12.93;;;10.57;;
9597;SDS011;4837;50.890;4.724;2023-04-24T01:57:32;13.52;;;10.57;;
9597;SDS011;4837;50.890;4.724;2023-04-24T01:59:59;12.70;;;10.82;;
9597;SDS011;4837;50.890;4.724;2023-04-24T02:02:25;16.35;;;10.90;;
9597;SDS011;4837;50.890;4.724;2023-04-24T02:04:55;13.98;;;9.80;;
9597;SDS011;4837;50.890;4.724;2023-04-24T02:07:21;12.88;;;9.68;;
9597;SDS011;4837;50.890;4.724;2023-04-24T02:09:47;12.38;;;9.30;;
9597;SDS011;4837;50.890;4.724;2023-04-24T02:12:14;10.07;;;8.77;;
9597;SDS011;4837;50.890;4.724;2023-04-24T02:14:40;13.07;;;9.57;;
9597;SDS011;4837;50.890;4.724;2023-04-24T02:17:07;14.00;;;9.57;;
9597;SDS011;4837;50.890;4.724;2023-04-24T02:19:33;12.02;;;9.18;;
9597;SDS011;4837;50.890;4.724;2023-04-24T02:21:59;11.98;;;9.77;;
9597;SDS011;4837;50.890;4.724;2023-04-24T02:24:25;12.15;;;9.77;;
9597;SDS011;4837;50.890;4.724;2023-04-24T02:26:52;10.65;;;9.30;;
9597;SDS011;4837;50.890;4.724;2023-04-24T02:29:18;13.93;;;10.00;;
9597;SDS011;4837;50.890;4.724;2023-04-24T02:31:44;15.00;;;10.97;;
9597;SDS011;4837;50.890;4.724;2023-04-24T02:34:10;12.85;;;11.27;;
9597;SDS011;4837;50.890;4.724;2023-04-24T02:36:36;15.75;;;10.88;;
9597;SDS011;4837;50.890;4.724;2023-04-24T02:39:02;14.57;;;11.18;;
9597;SDS011;4837;50.890;4.724;2023-04-24T02:41:28;15.55;;;11.63;;
9597;SDS011;4837;50.890;4.724;2023-04-24T02:43:57;17.08;;;11.98;;
9597;SDS011;4837;50.890;4.724;2023-04-24T02:46:23;14.35;;;11.70;;
9597;SDS011;4837;50.890;4.724;2023-04-24T02:48:49;14.97;;;12.57;;
9597;SDS011;4837;50.890;4.724;2023-04-24T02:51:16;16.73;;;12.50;;
9597;SDS011;4837;50.890;4.724;2023-04-24T02:53:42;13.85;;;12.30;;
9597;SDS011;4837;50.890;4.724;2023-04-24T02:56:08;17.30;;;12.52;;
9597;SDS011;4837;50.890;4.724;2023-04-24T02:58:37;17.92;;;12.40;;
9597;SDS011;4837;50.890;4.724;2023-04-24T03:01:03;16.75;;;12.93;;
9597;SDS011;4837;50.890;4.724;2023-04-24T03:03:30;16.55;;;12.48;;
9597;SDS011;4837;50.890;4.724;2023-04-24T03:05:56;15.65;;;12.30;;
9597;SDS011;4837;50.890;4.724;2023-04-24T03:08:22;15.25;;;11.55;;
9597;SDS011;4837;50.890;4.724;2023-04-24T03:10:48;16.35;;;11.77;;
9597;SDS011;4837;50.890;4.724;2023-04-24T03:13:15;15.18;;;12.05;;
9597;SDS011;4837;50.890;4.724;2023-04-24T03:15:41;14.48;;;11.43;;
9597;SDS011;4837;50.890;4.724;2023-04-24T03:18:08;15.40;;;11.33;;
9597;SDS011;4837;50.890;4.724;2023-04-24T03:20:34;13.93;;;11.52;;
9597;SDS011;4837;50.890;4.724;2023-04-24T03:23:02;14.07;;;11.32;;
9597;SDS011;4837;50.890;4.724;2023-04-24T03:25:28;15.30;;;10.95;;
9597;SDS011;4837;50.890;4.724;2023-04-24T03:27:54;15.25;;;11.20;;
9597;SDS011;4837;50.890;4.724;2023-04-24T03:30:20;11.23;;;9.77;;
9597;SDS011;4837;50.890;4.724;2023-04-24T03:32:46;11.95;;;9.95;;
9597;SDS011;4837;50.890;4.724;2023-04-24T03:35:13;12.73;;;10.27;;
9597;SDS011;4837;50.890;4.724;2023-04-24T03:37:39;11.77;;;9.75;;
9597;SDS011;4837;50.890;4.724;2023-04-24T03:40:05;12.52;;;9.57;;
9597;SDS011;4837;50.890;4.724;2023-04-24T03:42:32;11.15;;;9.40;;
9597;SDS011;4837;50.890;4.724;2023-04-24T03:44:58;14.50;;;9.27;;
9597;SDS011;4837;50.890;4.724;2023-04-24T03:47:24;13.20;;;9.57;;
9597;SDS011;4837;50.890;4.724;2023-04-24T03:49:50;10.73;;;8.30;;
9597;SDS011;4837;50.890;4.724;2023-04-24T03:52:17;11.73;;;9.30;;
9597;SDS011;4837;50.890;4.724;2023-04-24T03:54:43;10.45;;;9.35;;
9597;SDS011;4837;50.890;4.724;2023-04-24T03:57:09;10.68;;;9.20;;
9597;SDS011;4837;50.890;4.724;2023-04-24T03:59:35;13.82;;;9.25;;
9597;SDS011;4837;50.890;4.724;2023-04-24T04:02:01;11.85;;;9.77;;
9597;SDS011;4837;50.890;4.724;2023-04-24T04:04:27;12.00;;;8.63;;
9597;SDS011;4837;50.890;4.724;2023-04-24T04:06:53;10.65;;;7.65;;
9597;SDS011;4837;50.890;4.724;2023-04-24T04:09:19;11.30;;;8.68;;
9597;SDS011;4837;50.890;4.724;2023-04-24T04:11:46;8.80;;;7.22;;
9597;SDS011;4837;50.890;4.724;2023-04-24T04:14:12;9.80;;;7.93;;
9597;SDS011;4837;50.890;4.724;2023-04-24T04:16:38;8.40;;;7.47;;
9597;SDS011;4837;50.890;4.724;2023-04-24T04:19:04;9.95;;;7.30;;
9597;SDS011;4837;50.890;4.724;2023-04-24T04:21:30;7.45;;;6.50;;
9597;SDS011;4837;50.890;4.724;2023-04-24T04:23:57;9.33;;;6.53;;
9597;SDS011;4837;50.890;4.724;2023-04-24T04:26:23;8.07;;;6.23;;
9597;SDS011;4837;50.890;4.724;2023-04-24T04:28:51;7.47;;;6.60;;
9597;SDS011;4837;50.890;4.724;2023-04-24T04:31:18;8.23;;;6.10;;
9597;SDS011;4837;50.890;4.724;2023-04-24T04:33:44;7.65;;;5.75;;
9597;SDS011;4837;50.890;4.724;2023-04-24T04:36:10;7.00;;;5.65;;
9597;SDS011;4837;50.890;4.724;2023-04-24T04:38:37;6.82;;;5.50;;
9597;SDS011;4837;50.890;4.724;2023-04-24T04:41:03;9.55;;;5.63;;
9597;SDS011;4837;50.890;4.724;2023-04-24T04:43:30;7.70;;;6.20;;
9597;SDS011;4837;50.890;4.724;2023-04-24T04:45:57;6.80;;;6.10;;
9597;SDS011;4837;50.890;4.724;2023-04-24T04:48:26;6.25;;;5.20;;
9597;SDS011;4837;50.890;4.724;2023-04-24T04:50:52;6.25;;;5.60;;
9597;SDS011;4837;50.890;4.724;2023-04-24T04:53:18;8.77;;;6.47;;
9597;SDS011;4837;50.890;4.724;2023-04-24T04:55:44;9.43;;;5.53;;
9597;SDS011;4837;50.890;4.724;2023-04-24T04:58:11;6.80;;;5.38;;
9597;SDS011;4837;50.890;4.724;2023-04-24T05:00:37;8.35;;;6.05;;
9597;SDS011;4837;50.890;4.724;2023-04-24T05:03:04;7.75;;;6.25;;
9597;SDS011;4837;50.890;4.724;2023-04-24T05:05:30;7.93;;;6.00;;
9597;SDS011;4837;50.890;4.724;2023-04-24T05:07:56;9.57;;;6.83;;
9597;SDS011;4837;50.890;4.724;2023-04-24T05:10:22;8.18;;;7.03;;
9597;SDS011;4837;50.890;4.724;2023-04-24T05:12:48;10.60;;;7.88;;
9597;SDS011;4837;50.890;4.724;2023-04-24T05:15:14;8.60;;;7.63;;
9597;SDS011;4837;50.890;4.724;2023-04-24T05:17:40;11.73;;;8.27;;
9597;SDS011;4837;50.890;4.724;2023-04-24T05:20:07;10.70;;;8.82;;
9597;SDS011;4837;50.890;4.724;2023-04-24T05:22:33;12.98;;;9.00;;
9597;SDS011;4837;50.890;4.724;2023-04-24T05:25:00;13.50;;;9.60;;
9597;SDS011;4837;50.890;4.724;2023-04-24T05:27:27;14.85;;;9.52;;
9597;SDS011;4837;50.890;4.724;2023-04-24T05:29:53;13.65;;;9.52;;
9597;SDS011;4837;50.890;4.724;2023-04-24T05:32:19;11.32;;;8.52;;
9597;SDS011;4837;50.890;4.724;2023-04-24T05:34:46;10.15;;;8.25;;
9597;SDS011;4837;50.890;4.724;2023-04-24T05:37:13;11.77;;;8.50;;
9597;SDS011;4837;50.890;4.724;2023-04-24T05:39:39;10.93;;;8.30;;
9597;SDS011;4837;50.890;4.724;2023-04-24T05:42:06;12.95;;;8.40;;
9597;SDS011;4837;50.890;4.724;2023-04-24T05:44:32;12.75;;;9.20;;
9597;SDS011;4837;50.890;4.724;2023-04-24T05:46:59;11.33;;;8.97;;
9597;SDS011;4837;50.890;4.724;2023-04-24T05:49:25;13.93;;;9.37;;
9597;SDS011;4837;50.890;4.724;2023-04-24T05:51:51;11.98;;;8.85;;
9597;SDS011;4837;50.890;4.724;2023-04-24T05:54:17;15.23;;;9.73;;
9597;SDS011;4837;50.890;4.724;2023-04-24T05:56:44;13.88;;;9.43;;
9597;SDS011;4837;50.890;4.724;2023-04-24T05:59:10;14.77;;;8.82;;
9597;SDS011;4837;50.890;4.724;2023-04-24T06:01:36;18.42;;;10.98;;
9597;SDS011;4837;50.890;4.724;2023-04-24T06:04:02;13.50;;;9.40;;
9597;SDS011;4837;50.890;4.724;2023-04-24T06:06:29;16.25;;;9.65;;
9597;SDS011;4837;50.890;4.724;2023-04-24T06:08:55;15.93;;;9.07;;
9597;SDS011;4837;50.890;4.724;2023-04-24T06:11:22;14.38;;;9.25;;
9597;SDS011;4837;50.890;4.724;2023-04-24T06:13:48;12.43;;;9.07;;
9597;SDS011;4837;50.890;4.724;2023-04-24T06:16:14;13.23;;;9.70;;
9597;SDS011;4837;50.890;4.724;2023-04-24T06:18:40;14.70;;;10.13;;
9597;SDS011;4837;50.890;4.724;2023-04-24T06:21:06;15.30;;;10.57;;
9597;SDS011;4837;50.890;4.724;2023-04-24T06:23:32;17.10;;;10.35;;
9597;SDS011;4837;50.890;4.724;2023-04-24T06:25:59;15.73;;;10.60;;
9597;SDS011;4837;50.890;4.724;2023-04-24T06:28:26;16.75;;;10.43;;
9597;SDS011;4837;50.890;4.724;2023-04-24T06:30:52;14.33;;;10.93;;
9597;SDS011;4837;50.890;4.724;2023-04-24T06:33:18;17.07;;;11.50;;
9597;SDS011;4837;50.890;4.724;2023-04-24T06:35:44;16.10;;;11.85;;
9597;SDS011;4837;50.890;4.724;2023-04-24T06:38:10;15.10;;;11.73;;
9597;SDS011;4837;50.890;4.724;2023-04-24T06:40:36;19.17;;;12.10;;
9597;SDS011;4837;50.890;4.724;2023-04-24T06:43:02;17.00;;;12.63;;
9597;SDS011;4837;50.890;4.724;2023-04-24T06:45:30;20.67;;;12.80;;
9597;SDS011;4837;50.890;4.724;2023-04-24T06:47:56;19.48;;;11.90;;
9597;SDS011;4837;50.890;4.724;2023-04-24T06:50:22;18.73;;;11.88;;
9597;SDS011;4837;50.890;4.724;2023-04-24T06:52:48;20.20;;;12.83;;
9597;SDS011;4837;50.890;4.724;2023-04-24T06:55:14;18.80;;;12.60;;
9597;SDS011;4837;50.890;4.724;2023-04-24T06:57:42;19.88;;;11.38;;
9597;SDS011;4837;50.890;4.724;2023-04-24T07:00:09;18.63;;;11.98;;
9597;SDS011;4837;50.890;4.724;2023-04-24T07:02:35;18.25;;;12.80;;
9597;SDS011;4837;50.890;4.724;2023-04-24T07:05:02;19.35;;;12.15;;
9597;SDS011;4837;50.890;4.724;2023-04-24T07:07:29;21.35;;;13.32;;
9597;SDS011;4837;50.890;4.724;2023-04-24T07:09:56;21.30;;;13.68;;
9597;SDS011;4837;50.890;4.724;2023-04-24T07:12:22;26.58;;;13.88;;
9597;SDS011;4837;50.890;4.724;2023-04-24T07:14:50;20.83;;;13.68;;
9597;SDS011;4837;50.890;4.724;2023-04-24T07:17:16;21.13;;;13.55;;
9597;SDS011;4837;50.890;4.724;2023-04-24T07:19:42;22.23;;;13.83;;
9597;SDS011;4837;50.890;4.724;2023-04-24T07:22:08;19.55;;;12.95;;
9597;SDS011;4837;50.890;4.724;2023-04-24T07:24:36;21.77;;;13.30;;
9597;SDS011;4837;50.890;4.724;2023-04-24T07:27:02;18.35;;;12.77;;
9597;SDS011;4837;50.890;4.724;2023-04-24T07:29:28;22.43;;;13.50;;
9597;SDS011;4837;50.890;4.724;2023-04-24T07:31:54;17.35;;;12.27;;
9597;SDS011;4837;50.890;4.724;2023-04-24T07:34:21;21.15;;;13.60;;
9597;SDS011;4837;50.890;4.724;2023-04-24T07:36:47;18.42;;;12.73;;
9597;SDS011;4837;50.890;4.724;2023-04-24T07:39:14;16.92;;;12.63;;
9597;SDS011;4837;50.890;4.724;2023-04-24T07:41:40;21.77;;;13.70;;
9597;SDS011;4837;50.890;4.724;2023-04-24T07:44:06;17.47;;;13.20;;
9597;SDS011;4837;50.890;4.724;2023-04-24T07:46:32;21.33;;;13.75;;
9597;SDS011;4837;50.890;4.724;2023-04-24T07:48:58;21.90;;;14.18;;
9597;SDS011;4837;50.890;4.724;2023-04-24T07:51:26;19.35;;;14.23;;
9597;SDS011;4837;50.890;4.724;2023-04-24T07:53:56;23.38;;;14.43;;
9597;SDS011;4837;50.890;4.724;2023-04-24T07:56:22;24.92;;;13.88;;
9597;SDS011;4837;50.890;4.724;2023-04-24T07:58:48;22.38;;;13.73;;
9597;SDS011;4837;50.890;4.724;2023-04-24T08:01:14;20.63;;;14.35;;
9597;SDS011;4837;50.890;4.724;2023-04-24T08:03:40;19.63;;;13.47;;
9597;SDS011;4837;50.890;4.724;2023-04-24T08:06:06;19.77;;;12.75;;
9597;SDS011;4837;50.890;4.724;2023-04-24T08:08:32;15.30;;;11.60;;
9597;SDS011;4837;50.890;4.724;2023-04-24T08:10:59;23.60;;;13.63;;
9597;SDS011;4837;50.890;4.724;2023-04-24T08:13:25;18.00;;;11.90;;
9597;SDS011;4837;50.890;4.724;2023-04-24T08:15:51;21.50;;;11.55;;
9597;SDS011;4837;50.890;4.724;2023-04-24T08:18:17;19.63;;;11.65;;
9597;SDS011;4837;50.890;4.724;2023-04-24T08:20:43;21.30;;;11.23;;
9597;SDS011;4837;50.890;4.724;2023-04-24T08:23:10;15.75;;;9.90;;
9597;SDS011;4837;50.890;4.724;2023-04-24T08:25:36;16.40;;;9.00;;
9597;SDS011;4837;50.890;4.724;2023-04-24T08:28:03;13.40;;;8.13;;
9597;SDS011;4837;50.890;4.724;2023-04-24T08:30:29;13.18;;;7.75;;
9597;SDS011;4837;50.890;4.724;2023-04-24T08:32:55;12.70;;;7.28;;
9597;SDS011;4837;50.890;4.724;2023-04-24T08:35:22;15.68;;;7.95;;
9597;SDS011;4837;50.890;4.724;2023-04-24T08:37:48;14.90;;;7.53;;
9597;SDS011;4837;50.890;4.724;2023-04-24T08:40:15;12.60;;;7.53;;
9597;SDS011;4837;50.890;4.724;2023-04-24T08:42:41;11.88;;;7.03;;
9597;SDS011;4837;50.890;4.724;2023-04-24T08:45:09;11.93;;;7.20;;
9597;SDS011;4837;50.890;4.724;2023-04-24T08:47:35;12.40;;;7.30;;
9597;SDS011;4837;50.890;4.724;2023-04-24T08:50:02;11.40;;;7.55;;
9597;SDS011;4837;50.890;4.724;2023-04-24T08:52:32;13.90;;;7.72;;
9597;SDS011;4837;50.890;4.724;2023-04-24T08:54:58;16.05;;;8.63;;
9597;SDS011;4837;50.890;4.724;2023-04-24T08:57:26;12.63;;;7.88;;
9597;SDS011;4837;50.890;4.724;2023-04-24T08:59:53;10.57;;;7.90;;
9597;SDS011;4837;50.890;4.724;2023-04-24T09:02:19;11.27;;;6.80;;
9597;SDS011;4837;50.890;4.724;2023-04-24T09:04:45;11.52;;;6.70;;
9597;SDS011;4837;50.890;4.724;2023-04-24T09:07:11;12.52;;;6.00;;
9597;SDS011;4837;50.890;4.724;2023-04-24T09:09:38;11.70;;;5.75;;
9597;SDS011;4837;50.890;4.724;2023-04-24T09:12:04;6.78;;;4.90;;
9597;SDS011;4837;50.890;4.724;2023-04-24T09:14:31;11.48;;;5.50;;
9597;SDS011;4837;50.890;4.724;2023-04-24T09:16:57;18.02;;;6.90;;
9597;SDS011;4837;50.890;4.724;2023-04-24T09:19:23;12.52;;;6.75;;
9597;SDS011;4837;50.890;4.724;2023-04-24T09:21:49;12.68;;;6.25;;
9597;SDS011;4837;50.890;4.724;2023-04-24T09:24:19;16.05;;;6.57;;
9597;SDS011;4837;50.890;4.724;2023-04-24T09:26:47;15.35;;;6.38;;
9597;SDS011;4837;50.890;4.724;2023-04-24T09:29:17;9.48;;;5.53;;
9597;SDS011;4837;50.890;4.724;2023-04-24T09:31:44;7.93;;;4.80;;
9597;SDS011;4837;50.890;4.724;2023-04-24T09:34:10;10.13;;;4.53;;
9597;SDS011;4837;50.890;4.724;2023-04-24T09:36:40;12.73;;;5.30;;
9597;SDS011;4837;50.890;4.724;2023-04-24T09:39:08;5.97;;;4.05;;
9597;SDS011;4837;50.890;4.724;2023-04-24T09:41:44;9.35;;;4.32;;
9597;SDS011;4837;50.890;4.724;2023-04-24T09:44:12;8.98;;;4.85;;
9597;SDS011;4837;50.890;4.724;2023-04-24T09:46:38;13.35;;;4.97;;
9597;SDS011;4837;50.890;4.724;2023-04-24T09:49:08;12.88;;;5.18;;
9597;SDS011;4837;50.890;4.724;2023-04-24T09:51:36;13.40;;;5.40;;
9597;SDS011;4837;50.890;4.724;2023-04-24T09:54:03;10.70;;;5.28;;
9597;SDS011;4837;50.890;4.724;2023-04-24T09:56:33;11.35;;;5.43;;
9597;SDS011;4837;50.890;4.724;2023-04-24T09:59:05;7.53;;;4.43;;
9597;SDS011;4837;50.890;4.724;2023-04-24T10:01:32;7.63;;;4.03;;
9597;SDS011;4837;50.890;4.724;2023-04-24T10:03:59;6.57;;;3.88;;
9597;SDS011;4837;50.890;4.724;2023-04-24T10:06:35;6.97;;;3.35;;
9597;SDS011;4837;50.890;4.724;2023-04-24T10:09:01;6.18;;;3.65;;
9597;SDS011;4837;50.890;4.724;2023-04-24T10:11:28;3.67;;;2.60;;
9597;SDS011;4837;50.890;4.724;2023-04-24T10:13:55;5.60;;;3.05;;
9597;SDS011;4837;50.890;4.724;2023-04-24T10:16:22;10.20;;;3.35;;
9597;SDS011;4837;50.890;4.724;2023-04-24T10:18:49;6.15;;;3.38;;
9597;SDS011;4837;50.890;4.724;2023-04-24T10:21:16;6.05;;;3.28;;
9597;SDS011;4837;50.890;4.724;2023-04-24T10:23:42;8.57;;;3.42;;
9597;SDS011;4837;50.890;4.724;2023-04-24T10:26:10;9.00;;;3.97;;
9597;SDS011;4837;50.890;4.724;2023-04-24T10:28:43;9.80;;;4.05;;
9597;SDS011;4837;50.890;4.724;2023-04-24T10:31:10;6.38;;;4.20;;
9597;SDS011;4837;50.890;4.724;2023-04-24T10:33:36;6.85;;;3.88;;
9597;SDS011;4837;50.890;4.724;2023-04-24T10:36:04;7.55;;;4.28;;
9597;SDS011;4837;50.890;4.724;2023-04-24T10:38:30;8.52;;;3.45;;
9597;SDS011;4837;50.890;4.724;2023-04-24T10:41:14;6.72;;;3.60;;
9597;SDS011;4837;50.890;4.724;2023-04-24T10:46:33;6.70;;;3.67;;
9597;SDS011;4837;50.890;4.724;2023-04-24T10:49:00;6.45;;;3.83;;
9597;SDS011;4837;50.890;4.724;2023-04-24T10:51:45;5.13;;;4.13;;
9597;SDS011;4837;50.890;4.724;2023-04-24T10:56:50;6.57;;;3.70;;
9597;SDS011;4837;50.890;4.724;2023-04-24T10:59:24;7.43;;;3.70;;
9597;SDS011;4837;50.890;4.724;2023-04-24T11:01:52;5.60;;;3.42;;
9597;SDS011;4837;50.890;4.724;2023-04-24T11:04:28;7.85;;;3.85;;
9597;SDS011;4837;50.890;4.724;2023-04-24T11:06:55;7.40;;;3.63;;
9597;SDS011;4837;50.890;4.724;2023-04-24T11:09:21;7.18;;;3.63;;
9597;SDS011;4837;50.890;4.724;2023-04-24T11:11:47;8.70;;;3.95;;
9597;SDS011;4837;50.890;4.724;2023-04-24T11:14:14;7.35;;;3.65;;
9597;SDS011;4837;50.890;4.724;2023-04-24T11:16:44;6.60;;;3.80;;
9597;SDS011;4837;50.890;4.724;2023-04-24T11:21:47;8.70;;;4.47;;
9597;SDS011;4837;50.890;4.724;2023-04-24T11:26:56;10.55;;;4.00;;
9597;SDS011;4837;50.890;4.724;2023-04-24T11:29:24;6.65;;;4.22;;
9597;SDS011;4837;50.890;4.724;2023-04-24T11:32:23;7.55;;;3.80;;
9597;SDS011;4837;50.890;4.724;2023-04-24T11:34:50;6.30;;;4.05;;
9597;SDS011;4837;50.890;4.724;2023-04-24T11:37:17;6.60;;;4.22;;
9597;SDS011;4837;50.890;4.724;2023-04-24T11:39:43;9.27;;;4.10;;
9597;SDS011;4837;50.890;4.724;2023-04-24T11:42:09;6.85;;;4.63;;
9597;SDS011;4837;50.890;4.724;2023-04-24T11:44:35;7.55;;;4.25;;
9597;SDS011;4837;50.890;4.724;2023-04-24T11:47:05;6.25;;;3.83;;
9597;SDS011;4837;50.890;4.724;2023-04-24T11:49:37;8.18;;;4.40;;
9597;SDS011;4837;50.890;4.724;2023-04-24T11:52:04;7.03;;;4.10;;
9597;SDS011;4837;50.890;4.724;2023-04-24T11:54:30;6.18;;;4.13;;
9597;SDS011;4837;50.890;4.724;2023-04-24T11:56:57;5.65;;;3.75;;
9597;SDS011;4837;50.890;4.724;2023-04-24T11:59:23;5.05;;;4.10;;
9597;SDS011;4837;50.890;4.724;2023-04-24T12:01:49;5.90;;;4.20;;
9597;SDS011;4837;50.890;4.724;2023-04-24T12:04:16;6.53;;;4.00;;
9597;SDS011;4837;50.890;4.724;2023-04-24T12:09:27;6.25;;;3.92;;
9597;SDS011;4837;50.890;4.724;2023-04-24T12:11:54;6.13;;;4.10;;
9597;SDS011;4837;50.890;4.724;2023-04-24T12:14:23;9.90;;;4.03;;
9597;SDS011;4837;50.890;4.724;2023-04-24T12:16:50;8.35;;;4.45;;
9597;SDS011;4837;50.890;4.724;2023-04-24T12:19:20;6.13;;;4.60;;
9597;SDS011;4837;50.890;4.724;2023-04-24T12:21:59;5.13;;;3.55;;
9597;SDS011;4837;50.890;4.724;2023-04-24T12:24:26;5.32;;;4.03;;
9597;SDS011;4837;50.890;4.724;2023-04-24T12:26:52;9.02;;;4.32;;
9597;SDS011;4837;50.890;4.724;2023-04-24T12:29:22;6.80;;;3.80;;
9597;SDS011;4837;50.890;4.724;2023-04-24T12:31:48;7.43;;;4.43;;
9597;SDS011;4837;50.890;4.724;2023-04-24T12:34:21;5.97;;;4.10;;
9597;SDS011;4837;50.890;4.724;2023-04-24T12:36:47;6.00;;;4.28;;
9597;SDS011;4837;50.890;4.724;2023-04-24T12:39:17;5.60;;;3.90;;
9597;SDS011;4837;50.890;4.724;2023-04-24T12:41:54;4.88;;;4.00;;
9597;SDS011;4837;50.890;4.724;2023-04-24T12:44:28;7.38;;;3.45;;
9597;SDS011;4837;50.890;4.724;2023-04-24T12:46:54;5.80;;;3.70;;
9597;SDS011;4837;50.890;4.724;2023-04-24T12:49:20;4.68;;;3.40;;
9597;SDS011;4837;50.890;4.724;2023-04-24T12:51:46;5.38;;;3.75;;
9597;SDS011;4837;50.890;4.724;2023-04-24T12:54:12;6.00;;;3.40;;
9597;SDS011;4837;50.890;4.724;2023-04-24T12:56:39;5.97;;;3.45;;
9597;SDS011;4837;50.890;4.724;2023-04-24T12:59:05;6.32;;;3.42;;
9597;SDS011;4837;50.890;4.724;2023-04-24T13:01:31;7.80;;;3.75;;
9597;SDS011;4837;50.890;4.724;2023-04-24T13:03:57;10.07;;;4.13;;
9597;SDS011;4837;50.890;4.724;2023-04-24T13:06:23;6.65;;;3.67;;
9597;SDS011;4837;50.890;4.724;2023-04-24T13:08:49;6.72;;;3.47;;
9597;SDS011;4837;50.890;4.724;2023-04-24T13:11:16;4.10;;;3.45;;
9597;SDS011;4837;50.890;4.724;2023-04-24T13:13:42;5.57;;;3.70;;
9597;SDS011;4837;50.890;4.724;2023-04-24T13:16:09;6.47;;;3.70;;
9597;SDS011;4837;50.890;4.724;2023-04-24T13:18:35;5.38;;;3.58;;
9597;SDS011;4837;50.890;4.724;2023-04-24T13:21:01;7.65;;;3.95;;
9597;SDS011;4837;50.890;4.724;2023-04-24T13:23:27;5.75;;;4.00;;
9597;SDS011;4837;50.890;4.724;2023-04-24T13:25:54;6.07;;;3.70;;
9597;SDS011;4837;50.890;4.724;2023-04-24T13:28:24;6.63;;;3.70;;
9597;SDS011;4837;50.890;4.724;2023-04-24T13:30:50;5.45;;;3.70;;
9597;SDS011;4837;50.890;4.724;2023-04-24T13:33:16;5.97;;;3.45;;
9597;SDS011;4837;50.890;4.724;2023-04-24T13:35:42;5.35;;;3.58;;
9597;SDS011;4837;50.890;4.724;2023-04-24T13:38:09;5.18;;;3.42;;
9597;SDS011;4837;50.890;4.724;2023-04-24T13:40:35;5.03;;;3.58;;
9597;SDS011;4837;50.890;4.724;2023-04-24T13:43:01;6.00;;;3.45;;
9597;SDS011;4837;50.890;4.724;2023-04-24T13:45:27;5.40;;;3.28;;
9597;SDS011;4837;50.890;4.724;2023-04-24T13:47:54;5.00;;;2.70;;
9597;SDS011;4837;50.890;4.724;2023-04-24T13:50:22;4.05;;;2.72;;
9597;SDS011;4837;50.890;4.724;2023-04-24T13:52:48;7.03;;;2.80;;
9597;SDS011;4837;50.890;4.724;2023-04-24T13:55:14;4.10;;;3.05;;
9597;SDS011;4837;50.890;4.724;2023-04-24T13:57:40;5.75;;;3.22;;
9597;SDS011;4837;50.890;4.724;2023-04-24T14:00:06;4.43;;;3.08;;
9597;SDS011;4837;50.890;4.724;2023-04-24T14:02:35;6.38;;;3.15;;
9597;SDS011;4837;50.890;4.724;2023-04-24T14:05:02;4.95;;;3.10;;
9597;SDS011;4837;50.890;4.724;2023-04-24T14:07:28;7.88;;;3.00;;
9597;SDS011;4837;50.890;4.724;2023-04-24T14:09:55;5.32;;;3.00;;
9597;SDS011;4837;50.890;4.724;2023-04-24T14:12:22;5.32;;;2.45;;
9597;SDS011;4837;50.890;4.724;2023-04-24T14:14:48;6.10;;;3.03;;
9597;SDS011;4837;50.890;4.724;2023-04-24T14:17:14;5.38;;;2.83;;
9597;SDS011;4837;50.890;4.724;2023-04-24T14:19:40;4.90;;;2.75;;
9597;SDS011;4837;50.890;4.724;2023-04-24T14:22:06;5.70;;;2.67;;
9597;SDS011;4837;50.890;4.724;2023-04-24T14:24:32;5.18;;;2.75;;
9597;SDS011;4837;50.890;4.724;2023-04-24T14:26:59;4.63;;;2.67;;
9597;SDS011;4837;50.890;4.724;2023-04-24T14:29:25;5.60;;;2.58;;
9597;SDS011;4837;50.890;4.724;2023-04-24T14:31:51;4.13;;;2.17;;
9597;SDS011;4837;50.890;4.724;2023-04-24T14:34:17;5.57;;;2.67;;
9597;SDS011;4837;50.890;4.724;2023-04-24T14:36:44;4.97;;;2.53;;
9597;SDS011;4837;50.890;4.724;2023-04-24T14:39:10;4.25;;;2.83;;
9597;SDS011;4837;50.890;4.724;2023-04-24T14:41:37;4.68;;;2.03;;
9597;SDS011;4837;50.890;4.724;2023-04-24T14:44:04;4.15;;;2.22;;
9597;SDS011;4837;50.890;4.724;2023-04-24T14:46:30;4.15;;;2.22;;
9597;SDS011;4837;50.890;4.724;2023-04-24T14:48:57;5.38;;;2.30;;
9597;SDS011;4837;50.890;4.724;2023-04-24T14:51:23;3.60;;;2.08;;
9597;SDS011;4837;50.890;4.724;2023-04-24T14:53:50;5.85;;;2.38;;
9597;SDS011;4837;50.890;4.724;2023-04-24T14:56:17;4.95;;;2.28;;
9597;SDS011;4837;50.890;4.724;2023-04-24T14:58:43;3.85;;;2.38;;
9597;SDS011;4837;50.890;4.724;2023-04-24T15:01:09;3.35;;;2.58;;
9597;SDS011;4837;50.890;4.724;2023-04-24T15:03:36;4.93;;;2.83;;
9597;SDS011;4837;50.890;4.724;2023-04-24T15:06:02;4.55;;;2.20;;
9597;SDS011;4837;50.890;4.724;2023-04-24T15:08:28;7.32;;;2.83;;
9597;SDS011;4837;50.890;4.724;2023-04-24T15:10:54;4.50;;;2.83;;
9597;SDS011;4837;50.890;4.724;2023-04-24T15:13:20;5.18;;;2.72;;